createdAt,value
2022-12-03T00:00:26.497Z,6
2022-12-03T00:07:02.005Z,6
2022-12-03T00:13:37.863Z,6
2022-12-03T00:20:13.510Z,6
2022-12-03T00:26:49.194Z,6
2022-12-03T00:33:24.825Z,6
2022-12-03T00:40:00.297Z,8
2022-12-03T00:46:36.266Z,6
2022-12-03T00:53:11.827Z,6
2022-12-03T00:59:47.541Z,6
2022-12-03T01:06:23.083Z,6
2022-12-03T01:12:58.846Z,7
2022-12-03T01:19:34.357Z,7
2022-12-03T01:26:10.189Z,8
2022-12-03T01:32:45.877Z,8
2022-12-03T01:39:21.516Z,8
2022-12-03T01:45:57.223Z,8
2022-12-03T01:52:32.858Z,9
2022-12-03T01:59:08.498Z,9
2022-12-03T02:05:44.216Z,9
2022-12-03T02:12:19.879Z,10
2022-12-03T02:18:55.540Z,10
2022-12-03T02:25:31.225Z,9
2022-12-03T02:32:06.751Z,10
2022-12-03T02:38:42.567Z,10
2022-12-03T02:45:18.237Z,10
2022-12-03T02:51:53.896Z,9
2022-12-03T02:58:29.808Z,9
2022-12-03T03:05:05.254Z,10
2022-12-03T03:11:40.826Z,10
2022-12-03T03:18:16.352Z,9
2022-12-03T03:24:52.613Z,8
2022-12-03T03:31:27.941Z,8
2022-12-03T03:38:03.383Z,9
2022-12-03T03:44:39.263Z,8
2022-12-03T03:51:14.908Z,8
2022-12-03T03:57:50.375Z,8
2022-12-03T04:04:26.359Z,8
2022-12-03T04:11:01.940Z,7
2022-12-03T04:17:37.580Z,7
2022-12-03T04:24:13.269Z,8
2022-12-03T04:30:48.962Z,7
2022-12-03T04:37:24.352Z,7
2022-12-03T04:44:00.270Z,7
2022-12-03T04:50:35.932Z,7
2022-12-03T04:57:11.585Z,7
2022-12-03T05:03:47.320Z,7
2022-12-03T05:10:22.893Z,7
2022-12-03T05:16:58.712Z,6
2022-12-03T05:23:34.149Z,7
2022-12-03T05:30:10.001Z,7
2022-12-03T05:36:45.596Z,8
2022-12-03T05:43:21.133Z,8
2022-12-03T05:49:56.781Z,6
2022-12-03T05:56:32.636Z,7
2022-12-03T06:03:08.486Z,7
2022-12-03T06:09:43.736Z,7
2022-12-03T06:16:19.487Z,7
2022-12-03T06:22:55.367Z,7
2022-12-03T06:29:30.975Z,7
2022-12-03T06:36:06.686Z,6
2022-12-03T06:42:42.128Z,7
2022-12-03T06:49:17.971Z,7
2022-12-03T06:55:53.658Z,6
2022-12-03T07:02:29.385Z,7
2022-12-03T07:09:05.060Z,7
2022-12-03T07:15:40.783Z,7
2022-12-03T07:22:16.371Z,7
2022-12-03T07:28:51.975Z,7
2022-12-03T07:35:28.280Z,7
2022-12-03T07:42:03.462Z,7
2022-12-03T07:48:39.036Z,7
2022-12-03T07:55:14.698Z,7
2022-12-03T08:01:50.241Z,8
2022-12-03T08:08:25.812Z,7
2022-12-03T08:15:01.764Z,7
2022-12-03T08:21:37.407Z,7
2022-12-03T08:28:13.086Z,7
2022-12-03T08:34:48.726Z,8
2022-12-03T08:41:24.398Z,8
2022-12-03T08:48:00.097Z,8
2022-12-03T08:54:35.580Z,8
2022-12-03T09:01:11.561Z,8
2022-12-03T09:07:47.165Z,8
2022-12-03T09:14:22.740Z,8
2022-12-03T09:20:59.814Z,9
2022-12-03T09:27:34.067Z,8
2022-12-03T09:34:09.727Z,8
2022-12-03T09:40:45.253Z,9
2022-12-03T09:47:20.861Z,8
2022-12-03T09:53:56.584Z,9
2022-12-03T10:00:32.450Z,9
2022-12-03T10:07:08.328Z,9
2022-12-03T10:13:43.759Z,8
2022-12-03T10:20:19.551Z,10
2022-12-03T10:26:55.126Z,9
2022-12-03T10:33:30.547Z,11
2022-12-03T10:40:06.531Z,9
2022-12-03T10:46:42.229Z,10
2022-12-03T10:53:17.761Z,11
2022-12-03T10:59:53.443Z,10
2022-12-03T11:06:29.147Z,11
2022-12-03T11:13:04.795Z,11
2022-12-03T11:19:40.635Z,11
2022-12-03T11:26:19.366Z,11
2022-12-03T11:32:51.816Z,12
2022-12-03T11:39:27.289Z,13
2022-12-03T11:46:04.575Z,13
2022-12-03T11:52:38.606Z,13
2022-12-03T11:59:14.228Z,14
2022-12-03T12:05:49.939Z,12
2022-12-03T12:12:25.809Z,16
2022-12-03T12:19:01.483Z,13
2022-12-03T12:25:37.233Z,13
2022-12-03T12:32:12.830Z,14
2022-12-03T12:38:48.331Z,12
2022-12-03T12:45:24.151Z,14
2022-12-03T12:51:59.811Z,15
2022-12-03T12:58:35.536Z,23
2022-12-03T13:05:11.158Z,14
2022-12-03T13:11:46.697Z,13
2022-12-03T13:18:22.527Z,14
2022-12-03T13:24:58.190Z,13
2022-12-03T13:31:33.937Z,13
2022-12-03T13:38:09.554Z,14
2022-12-03T13:44:45.170Z,14
2022-12-03T13:51:20.714Z,14
2022-12-03T13:57:56.558Z,14
2022-12-03T14:04:32.203Z,14
2022-12-03T14:11:08.415Z,13
2022-12-03T14:17:43.557Z,14
2022-12-03T14:24:19.011Z,14
2022-12-03T14:30:54.804Z,14
2022-12-03T14:37:30.568Z,13
2022-12-03T14:44:06.229Z,14
2022-12-03T14:50:41.870Z,14
2022-12-03T14:57:17.362Z,13
2022-12-03T15:03:53.209Z,15
2022-12-03T15:10:28.768Z,13
2022-12-03T15:17:04.675Z,13
2022-12-03T15:23:40.244Z,13
2022-12-03T15:30:15.893Z,14
2022-12-03T15:36:51.635Z,16
2022-12-03T15:43:27.264Z,14
2022-12-03T15:50:03.153Z,12
2022-12-03T15:56:38.600Z,12
2022-12-03T16:03:14.165Z,12
2022-12-03T16:09:49.912Z,11
2022-12-03T16:16:25.637Z,12
2022-12-03T16:23:01.075Z,12
2022-12-03T16:29:36.922Z,11
2022-12-03T16:36:12.628Z,11
